createdAt,value
2022-08-27T00:01:56.175Z,101882.91
2022-08-27T00:04:23.939Z,101879.59
2022-08-27T00:06:51.905Z,101883.13
2022-08-27T00:09:26.542Z,101878.63
2022-08-27T00:11:55.734Z,101883.13
2022-08-27T00:14:24.680Z,101882.38
2022-08-27T00:16:52.541Z,101875.03
2022-08-27T00:19:20.145Z,101877.00
2022-08-27T00:21:48.388Z,101875.25
2022-08-27T00:24:15.978Z,101873.56
2022-08-27T00:26:43.832Z,101867.34
2022-08-27T00:29:11.511Z,101873.78
2022-08-27T00:31:39.778Z,101872.09
2022-08-27T00:34:07.592Z,101881.84
2022-08-27T00:36:36.001Z,101878.06
2022-08-27T00:39:04.903Z,101879.66
2022-08-27T00:41:33.790Z,101884.91
2022-08-27T00:44:02.238Z,101885.53
2022-08-27T00:46:42.625Z,101886.38
2022-08-27T00:49:16.882Z,101886.59
2022-08-27T00:51:51.126Z,101885.88
2022-08-27T00:54:19.467Z,101877.31
2022-08-27T00:56:51.366Z,101884.75
2022-08-27T00:59:23.614Z,101889.38
2022-08-27T01:02:10.526Z,101885.19
2022-08-27T01:04:40.639Z,101884.94
2022-08-27T01:07:09.722Z,101892.44
2022-08-27T01:09:38.773Z,101893.66
2022-08-27T01:12:07.307Z,101901.16
2022-08-27T01:14:35.699Z,101904.19
2022-08-27T01:17:04.139Z,101894.69
2022-08-27T01:19:54.774Z,101902.09
2022-08-27T01:22:44.200Z,101904.13
2022-08-27T01:25:15.678Z,101898.03
2022-08-27T01:27:44.733Z,101899.09
2022-08-27T01:30:15.651Z,101907.91
2022-08-27T01:32:44.330Z,101899.63
2022-08-27T01:35:14.519Z,101898.44
2022-08-27T01:37:44.641Z,101892.72
2022-08-27T01:40:13.857Z,101897.13
2022-08-27T01:42:49.370Z,101898.00
2022-08-27T01:45:30.037Z,101888.34
2022-08-27T01:47:58.842Z,101899.06
2022-08-27T01:50:31.928Z,101895.75
2022-08-27T01:53:07.857Z,101887.94
2022-08-27T01:55:35.722Z,101882.81
2022-08-27T01:58:04.759Z,101883.78
2022-08-27T02:00:36.663Z,101878.66
2022-08-27T02:03:06.539Z,101881.56
2022-08-27T02:05:44.539Z,101883.72
2022-08-27T02:08:16.848Z,101882.31
2022-08-27T02:10:46.438Z,101870.50
2022-08-27T02:13:14.977Z,101876.28
2022-08-27T02:15:43.651Z,101884.66
2022-08-27T02:18:12.310Z,101877.78
2022-08-27T02:20:40.001Z,101882.41
2022-08-27T02:23:07.925Z,101883.47
2022-08-27T02:25:36.023Z,101879.31
2022-08-27T02:28:05.959Z,101885.06
2022-08-27T02:30:35.261Z,101881.84
2022-08-27T02:33:04.661Z,101873.97
2022-08-27T02:35:34.673Z,101867.09
2022-08-27T02:38:02.556Z,101868.63
2022-08-27T02:40:30.221Z,101867.09
2022-08-27T02:42:58.239Z,101871.59
2022-08-27T02:45:25.907Z,101872.44
2022-08-27T02:47:54.143Z,101862.72
2022-08-27T02:50:22.043Z,101875.38
2022-08-27T02:52:55.045Z,101876.44
2022-08-27T02:55:23.159Z,101868.72
2022-08-27T02:57:50.754Z,101866.25
2022-08-27T03:00:21.094Z,101876.31
2022-08-27T03:02:49.519Z,101866.81
2022-08-27T03:05:18.271Z,101862.44
2022-08-27T03:07:45.901Z,101867.84
2022-08-27T03:10:16.119Z,101863.69
2022-08-27T03:12:44.423Z,101864.75
2022-08-27T03:15:17.878Z,101867.75
2022-08-27T03:18:04.599Z,101865.19
2022-08-27T03:20:33.392Z,101874.28
2022-08-27T03:23:01.258Z,101878.75
2022-08-27T03:25:29.068Z,101877.91
2022-08-27T03:27:56.709Z,101871.69
2022-08-27T03:30:25.017Z,101877.91
2022-08-27T03:32:53.060Z,101877.16
2022-08-27T03:35:22.013Z,101875.63
2022-08-27T03:37:50.539Z,101875.84
2022-08-27T03:40:19.933Z,101867.09
2022-08-27T03:42:47.554Z,101877.88
2022-08-27T03:45:15.576Z,101881.59
2022-08-27T03:47:43.285Z,101880.88
2022-08-27T03:50:12.124Z,101879.25
2022-08-27T03:52:39.796Z,101880.22
2022-08-27T03:55:08.999Z,101877.66
2022-08-27T03:57:37.377Z,101885.88
2022-08-27T04:00:09.438Z,101883.41
2022-08-27T04:02:41.736Z,101876.47
2022-08-27T04:05:12.481Z,101875.72
2022-08-27T04:07:41.798Z,101863.41
2022-08-27T04:10:11.384Z,101869.72
2022-08-27T04:12:39.170Z,101867.06
2022-08-27T04:15:09.473Z,101871.81
2022-08-27T04:17:37.618Z,101869.69
2022-08-27T04:20:33.915Z,101878.75
2022-08-27T04:22:54.648Z,101883.22
2022-08-27T04:25:22.178Z,101885.06
2022-08-27T04:27:49.792Z,101892.09
2022-08-27T04:30:19.424Z,101888.56
2022-08-27T04:32:47.132Z,101876.28
2022-08-27T04:35:14.887Z,101879.06
2022-08-27T04:37:42.626Z,101882.78
2022-08-27T04:40:11.078Z,101881.16
2022-08-27T04:42:38.680Z,101879.47
2022-08-27T04:45:06.787Z,101878.69
2022-08-27T04:47:35.658Z,101878.81
2022-08-27T04:50:05.159Z,101879.88
2022-08-27T04:52:33.910Z,101881.03
2022-08-27T04:55:09.323Z,101880.38
2022-08-27T04:57:38.162Z,101882.28
2022-08-27T05:00:08.226Z,101889.50
2022-08-27T05:02:35.830Z,101888.66
2022-08-27T05:05:03.473Z,101895.81
2022-08-27T05:07:31.161Z,101889.50
2022-08-27T05:09:58.715Z,101890.59
2022-08-27T05:12:26.364Z,101896.88
2022-08-27T05:14:54.854Z,101900.50
2022-08-27T05:17:22.488Z,101892.56
2022-08-27T05:19:50.066Z,101904.22
2022-08-27T05:22:17.674Z,101900.69
2022-08-27T05:24:50.240Z,101897.25
2022-08-27T05:27:18.035Z,101900.09
2022-08-27T05:29:45.608Z,101893.91
2022-08-27T05:32:13.602Z,101898.38
2022-08-27T05:34:41.181Z,101907.34
2022-08-27T05:37:08.739Z,101910.03
2022-08-27T05:39:36.564Z,101917.91
2022-08-27T05:42:04.354Z,101914.31
2022-08-27T05:44:47.312Z,101923.09
2022-08-27T05:47:15.045Z,101911.84
2022-08-27T05:49:42.700Z,101917.09
2022-08-27T05:52:13.625Z,101915.28
2022-08-27T05:54:41.766Z,101916.22
2022-08-27T05:57:09.437Z,101924.00
2022-08-27T05:59:55.772Z,101925.56
2022-08-27T06:02:23.461Z,101929.72
2022-08-27T06:04:51.445Z,101924.94
2022-08-27T06:07:19.355Z,101930.06
2022-08-27T06:09:47.081Z,101933.31
2022-08-27T06:12:14.716Z,101932.16
2022-08-27T06:14:42.402Z,101942.22
2022-08-27T06:17:10.174Z,101934.25
2022-08-27T06:19:37.793Z,101938.59
2022-08-27T06:22:10.591Z,101939.38
2022-08-27T06:24:40.739Z,101938.31
2022-08-27T06:27:14.165Z,101930.50
2022-08-27T06:29:42.568Z,101929.66
2022-08-27T06:32:11.325Z,101931.34
2022-08-27T06:34:39.700Z,101936.50
2022-08-27T06:37:07.881Z,101932.75
2022-08-27T06:39:37.562Z,101927.19
2022-08-27T06:42:06.608Z,101925.09
2022-08-27T06:44:34.487Z,101933.63
2022-08-27T06:47:03.865Z,101940.16
2022-08-27T06:49:32.193Z,101942.00
2022-08-27T06:51:59.777Z,101949.88
2022-08-27T06:54:27.389Z,101944.38
2022-08-27T06:56:59.213Z,101944.81
2022-08-27T06:59:27.816Z,101947.34
2022-08-27T07:01:55.489Z,101948.38
2022-08-27T07:04:32.286Z,101946.09
2022-08-27T07:07:02.414Z,101955.38
2022-08-27T07:09:32.707Z,101954.72
2022-08-27T07:12:01.698Z,101961.63
2022-08-27T07:14:34.281Z,101942.25
2022-08-27T07:17:04.071Z,101951.75
2022-08-27T07:19:32.384Z,101964.06
2022-08-27T07:22:00.657Z,101962.59
2022-08-27T07:24:28.272Z,101962.25
2022-08-27T07:26:55.874Z,101962.94
2022-08-27T07:29:23.566Z,101968.47
2022-08-27T07:31:51.226Z,101972.69
2022-08-27T07:34:18.874Z,101971.16
2022-08-27T07:36:46.492Z,101971.28
2022-08-27T07:39:16.827Z,101967.50
2022-08-27T07:42:02.983Z,101973.63
2022-08-27T07:44:34.364Z,101983.38
2022-08-27T07:47:02.778Z,101971.44
2022-08-27T07:49:31.666Z,101976.09
2022-08-27T07:51:59.406Z,101982.66
2022-08-27T07:54:27.354Z,101977.75
2022-08-27T07:56:56.179Z,101979.97
2022-08-27T07:59:25.182Z,101980.06
2022-08-27T08:01:56.369Z,101971.03
2022-08-27T08:04:24.755Z,101978.13
2022-08-27T08:06:52.779Z,101986.78
2022-08-27T08:09:23.898Z,101995.66
2022-08-27T08:11:52.824Z,101991.09
2022-08-27T08:14:20.783Z,101999.91
2022-08-27T08:16:48.697Z,102000.31
2022-08-27T08:19:16.736Z,102001.44
2022-08-27T08:21:44.394Z,102001.31
2022-08-27T08:24:12.052Z,102010.28
2022-08-27T08:26:42.220Z,101999.03
2022-08-27T08:29:13.736Z,102005.47
2022-08-27T08:31:50.278Z,102005.28
2022-08-27T08:34:19.945Z,102007.84
2022-08-27T08:36:53.994Z,102008.00
2022-08-27T08:39:24.148Z,102010.88
2022-08-27T08:41:57.969Z,102015.28
2022-08-27T08:44:36.730Z,102008.44
2022-08-27T08:47:15.777Z,102017.72
2022-08-27T08:50:11.102Z,102016.25
2022-08-27T08:52:52.394Z,102020.00
2022-08-27T08:55:45.889Z,102008.97
2022-08-27T08:58:30.094Z,102011.88
2022-08-27T09:01:01.012Z,102008.03
2022-08-27T09:03:30.382Z,102009.09
2022-08-27T09:06:08.379Z,102024.75
2022-08-27T09:08:43.085Z,102024.41
2022-08-27T09:11:32.450Z,102019.97
2022-08-27T09:14:04.806Z,102019.69
2022-08-27T09:16:32.828Z,102018.50
2022-08-27T09:19:02.918Z,102008.78
2022-08-27T09:21:55.642Z,102021.19
2022-08-27T09:24:50.503Z,102011.84
2022-08-27T09:27:26.655Z,102009.78
2022-08-27T09:30:16.224Z,102005.31
2022-08-27T09:33:03.537Z,102015.56
2022-08-27T09:35:46.817Z,102006.75
2022-08-27T09:38:37.905Z,102022.00
2022-08-27T09:41:18.903Z,102023.47
2022-08-27T09:43:58.489Z,102016.78
2022-08-27T09:49:25.382Z,102016.34
2022-08-27T09:52:00.821Z,102017.59
2022-08-27T09:54:47.432Z,102021.75
2022-08-27T09:57:52.535Z,102014.78
2022-08-27T10:00:33.569Z,102009.44
2022-08-27T10:03:10.418Z,102017.94
2022-08-27T10:05:51.200Z,102011.03
2022-08-27T10:08:46.562Z,102010.31
2022-08-27T10:11:36.284Z,102006.66
2022-08-27T10:14:31.378Z,102005.81
2022-08-27T10:17:25.649Z,102007.78
2022-08-27T10:20:30.675Z,102005.38
2022-08-27T10:23:28.844Z,102001.56
2022-08-27T10:26:05.667Z,101997.22
2022-08-27T10:29:05.515Z,101992.13
2022-08-27T10:32:18.653Z,101982.19
2022-08-27T10:35:05.401Z,101979.50
2022-08-27T10:37:52.327Z,101971.66
2022-08-27T10:40:34.773Z,101977.56
2022-08-27T10:43:24.617Z,101981.47
2022-08-27T10:46:01.758Z,101982.94
2022-08-27T10:48:41.512Z,101984.84
2022-08-27T10:51:18.347Z,101985.00
2022-08-27T10:53:54.790Z,101985.44
2022-08-27T10:56:46.739Z,101987.91
2022-08-27T10:59:21.645Z,101995.09
2022-08-27T11:02:06.696Z,101999.06
2022-08-27T11:04:48.569Z,101991.16
2022-08-27T11:07:27.389Z,101983.84
2022-08-27T11:10:00.153Z,101985.69
2022-08-27T11:12:37.723Z,101985.47
2022-08-27T11:15:13.043Z,101987.84
2022-08-27T11:18:06.572Z,101992.31
2022-08-27T11:20:48.517Z,101988.22
2022-08-27T11:23:20.281Z,101992.25
2022-08-27T11:26:04.183Z,101992.13
2022-08-27T11:28:41.901Z,101995.19
2022-08-27T11:31:36.257Z,101992.94
2022-08-27T11:37:27.265Z,101985.94
2022-08-27T11:39:57.925Z,101988.94
2022-08-27T11:42:36.268Z,101987.34
2022-08-27T11:45:15.548Z,101987.97
2022-08-27T11:47:56.338Z,101979.81
2022-08-27T11:50:25.785Z,101975.38
2022-08-27T11:52:55.544Z,101980.00
2022-08-27T11:55:28.411Z,101975.13
2022-08-27T11:58:17.817Z,101970.59
2022-08-27T12:00:46.940Z,101978.16
2022-08-27T12:03:20.458Z,101972.50
2022-08-27T12:06:05.502Z,101975.91
2022-08-27T12:08:37.795Z,101972.28
2022-08-27T12:11:53.449Z,101979.47
2022-08-27T12:14:42.791Z,101968.94
2022-08-27T12:17:42.450Z,101970.91
2022-08-27T12:20:38.405Z,101973.28
2022-08-27T12:23:44.198Z,101969.25
2022-08-27T12:26:26.648Z,101961.88
2022-08-27T12:29:17.712Z,101960.44
2022-08-27T12:31:48.909Z,101967.25
2022-08-27T12:34:23.195Z,101965.56
2022-08-27T12:36:53.429Z,101975.59
2022-08-27T12:39:28.973Z,101976.25
2022-08-27T12:41:56.838Z,101972.66
2022-08-27T12:44:33.574Z,101959.13
2022-08-27T12:47:06.318Z,101960.44
2022-08-27T12:49:44.166Z,101959.78
2022-08-27T12:52:48.881Z,101958.13
2022-08-27T12:55:34.946Z,101947.34
2022-08-27T12:58:15.353Z,101955.00
2022-08-27T13:01:10.329Z,101948.97
2022-08-27T13:03:50.961Z,101947.44
2022-08-27T13:06:32.290Z,101954.72
2022-08-27T13:09:03.812Z,101955.31
2022-08-27T13:11:36.013Z,101957.47
2022-08-27T13:14:13.864Z,101948.25
2022-08-27T13:16:58.408Z,101947.72
2022-08-27T13:19:34.663Z,101936.16
2022-08-27T13:22:05.310Z,101945.47
2022-08-27T13:24:36.000Z,101935.53
2022-08-27T13:27:06.325Z,101942.91
2022-08-27T13:29:34.834Z,101930.78
2022-08-27T13:32:03.393Z,101931.88
2022-08-27T13:34:36.116Z,101926.63
2022-08-27T13:37:06.818Z,101930.91
2022-08-27T13:39:37.032Z,101926.25
2022-08-27T13:42:08.486Z,101927.91
2022-08-27T13:44:41.654Z,101925.72
2022-08-27T13:47:25.985Z,101936.25
2022-08-27T13:50:21.692Z,101930.41
2022-08-27T13:53:11.822Z,101924.25
2022-08-27T13:55:45.783Z,101932.03
2022-08-27T14:01:30.611Z,101915.56
2022-08-27T14:04:09.660Z,101918.25
2022-08-27T14:06:46.049Z,101926.16
2022-08-27T14:09:23.352Z,101934.72
2022-08-27T14:12:08.723Z,101928.59
2022-08-27T14:14:38.924Z,101930.00
2022-08-27T14:17:20.079Z,101926.22
2022-08-27T14:19:50.219Z,101931.44
2022-08-27T14:22:18.876Z,101927.25
2022-08-27T14:24:46.897Z,101924.75
2022-08-27T14:27:16.224Z,101933.81
2022-08-27T14:29:43.947Z,101938.16
2022-08-27T14:32:11.572Z,101931.31
2022-08-27T14:34:39.215Z,101933.19
2022-08-27T14:37:07.501Z,101934.78
2022-08-27T14:39:35.306Z,101928.41
2022-08-27T14:42:02.921Z,101933.41
2022-08-27T14:44:33.127Z,101929.91
2022-08-27T14:47:01.550Z,101931.06
2022-08-27T14:49:35.006Z,101924.38
2022-08-27T14:52:05.575Z,101931.97
2022-08-27T14:54:33.846Z,101930.69
2022-08-27T14:57:03.110Z,101921.19
2022-08-27T14:59:32.026Z,101923.28
2022-08-27T15:02:01.976Z,101923.53
2022-08-27T15:04:30.898Z,101921.69
2022-08-27T15:07:00.283Z,101921.09
2022-08-27T15:09:29.746Z,101923.16
2022-08-27T15:11:58.423Z,101918.66
2022-08-27T15:14:33.287Z,101924.94
2022-08-27T15:17:01.137Z,101926.66
2022-08-27T15:19:30.115Z,101927.75
2022-08-27T15:22:05.567Z,101929.25
2022-08-27T15:24:43.344Z,101933.25
2022-08-27T15:27:11.036Z,101926.66
2022-08-27T15:29:40.433Z,101928.97
2022-08-27T15:32:18.484Z,101929.34
2022-08-27T15:34:48.524Z,101921.56
2022-08-27T15:37:16.569Z,101927.41
2022-08-27T15:39:44.236Z,101928.00
2022-08-27T15:42:12.168Z,101931.56
2022-08-27T15:44:48.783Z,101930.97
2022-08-27T15:47:19.525Z,101928.31
2022-08-27T15:49:47.590Z,101931.69
2022-08-27T15:52:17.428Z,101932.53
2022-08-27T15:54:46.660Z,101925.34
2022-08-27T15:57:14.638Z,101933.72
2022-08-27T15:59:42.424Z,101924.63
2022-08-27T16:02:15.680Z,101925.97
2022-08-27T16:04:44.689Z,101918.53
2022-08-27T16:07:20.142Z,101926.25
2022-08-27T16:09:48.921Z,101929.38
2022-08-27T16:12:26.704Z,101922.44
2022-08-27T16:14:56.341Z,101927.31
2022-08-27T16:17:26.582Z,101934.38
2022-08-27T16:19:54.494Z,101928.78
2022-08-27T16:22:22.042Z,101927.84
2022-08-27T16:24:49.799Z,101925.19
2022-08-27T16:27:17.295Z,101923.88
2022-08-27T16:29:44.982Z,101927.44
2022-08-27T16:32:17.339Z,101924.34
2022-08-27T16:34:55.749Z,101926.91
2022-08-27T16:37:24.896Z,101918.22
2022-08-27T16:39:53.221Z,101916.72
2022-08-27T16:42:21.353Z,101931.38
2022-08-27T16:44:49.244Z,101921.41
2022-08-27T16:47:17.448Z,101917.53
2022-08-27T16:50:03.757Z,101930.56
2022-08-27T16:52:31.494Z,101922.66
2022-08-27T16:55:00.233Z,101925.38
2022-08-27T16:57:27.840Z,101919.94
2022-08-27T16:59:55.958Z,101924.91
2022-08-27T17:02:35.087Z,101921.34
2022-08-27T17:05:34.118Z,101915.22
2022-08-27T17:07:50.543Z,101923.38
2022-08-27T17:10:19.348Z,101914.72
2022-08-27T17:12:48.068Z,101922.97
2022-08-27T17:18:22.628Z,101913.16
2022-08-27T17:20:52.270Z,101919.13
2022-08-27T17:23:28.260Z,101915.44
2022-08-27T17:25:55.902Z,101921.91
2022-08-27T17:28:23.417Z,101919.53
2022-08-27T17:30:51.228Z,101920.06
2022-08-27T17:33:28.788Z,101916.03
2022-08-27T17:35:56.753Z,101915.53
2022-08-27T17:38:24.732Z,101914.69
2022-08-27T17:40:53.931Z,101922.38
2022-08-27T17:43:22.528Z,101913.53
2022-08-27T17:45:50.324Z,101915.75
2022-08-27T17:48:18.075Z,101922.13
2022-08-27T17:50:47.689Z,101918.41
2022-08-27T17:53:15.310Z,101918.63
2022-08-27T17:55:43.044Z,101923.22
2022-08-27T17:58:10.706Z,101919.81
2022-08-27T18:00:39.368Z,101919.16
2022-08-27T18:03:18.820Z,101919.88
2022-08-27T18:05:48.290Z,101919.38
2022-08-27T18:08:16.051Z,101926.84
2022-08-27T18:10:44.871Z,101929.59
2022-08-27T18:13:14.881Z,101929.97
2022-08-27T18:15:42.870Z,101934.75
2022-08-27T18:18:11.741Z,101930.00
2022-08-27T18:20:42.490Z,101921.50
2022-08-27T18:23:10.433Z,101931.88
2022-08-27T18:25:39.504Z,101922.38
2022-08-27T18:28:09.923Z,101928.16
2022-08-27T18:30:39.762Z,101927.84
2022-08-27T18:33:08.342Z,101926.66
2022-08-27T18:35:36.986Z,101935.44
2022-08-27T18:38:06.362Z,101939.34
2022-08-27T18:40:41.694Z,101936.97
2022-08-27T18:43:09.436Z,101944.94
2022-08-27T18:45:37.860Z,101939.53
2022-08-27T18:48:14.436Z,101936.31
2022-08-27T18:50:46.411Z,101932.22
2022-08-27T18:53:17.668Z,101932.03
2022-08-27T18:55:45.351Z,101932.72
2022-08-27T18:58:13.461Z,101936.28
2022-08-27T19:00:44.784Z,101942.88
2022-08-27T19:03:17.826Z,101942.00
2022-08-27T19:05:45.671Z,101940.97
2022-08-27T19:08:14.313Z,101944.84
2022-08-27T19:10:41.886Z,101949.56
2022-08-27T19:13:09.759Z,101945.66
2022-08-27T19:15:37.761Z,101952.41
2022-08-27T19:18:05.502Z,101947.47
2022-08-27T19:20:33.222Z,101958.97
2022-08-27T19:23:00.900Z,101960.66
2022-08-27T19:25:29.384Z,101962.31
2022-08-27T19:27:57.442Z,101966.69
2022-08-27T19:30:25.422Z,101973.44
2022-08-27T19:32:54.680Z,101965.78
2022-08-27T19:35:22.736Z,101972.88
2022-08-27T19:37:52.981Z,101965.38
2022-08-27T19:40:22.995Z,101975.69
2022-08-27T19:42:51.141Z,101971.56
2022-08-27T19:45:23.295Z,101971.91
2022-08-27T19:47:52.968Z,101968.66
2022-08-27T19:50:21.588Z,101964.44
2022-08-27T19:52:50.062Z,101967.47
2022-08-27T19:55:18.016Z,101971.31
2022-08-27T19:57:46.362Z,101969.22
2022-08-27T20:03:19.582Z,101983.16
2022-08-27T20:05:50.311Z,101991.91
2022-08-27T20:08:19.174Z,101990.69
2022-08-27T20:10:47.549Z,101983.56
2022-08-27T20:13:15.309Z,101992.84
2022-08-27T20:15:42.918Z,101994.88
2022-08-27T20:18:13.809Z,101996.03
2022-08-27T20:20:41.494Z,101998.75
2022-08-27T20:23:09.168Z,101999.06
2022-08-27T20:25:37.621Z,102001.06
2022-08-27T20:28:35.484Z,102009.16
2022-08-27T20:30:58.369Z,102014.03
2022-08-27T20:33:27.155Z,102010.81
2022-08-27T20:35:56.722Z,102005.69
2022-08-27T20:38:24.692Z,102009.25
2022-08-27T20:40:52.300Z,102013.81
2022-08-27T20:43:19.893Z,102012.13
2022-08-27T20:45:47.609Z,102009.56
2022-08-27T20:48:15.272Z,102013.28
2022-08-27T20:50:43.602Z,102010.75
2022-08-27T20:53:11.183Z,102008.16
2022-08-27T20:55:39.124Z,102011.03
2022-08-27T20:58:25.316Z,102005.47
2022-08-27T21:00:56.842Z,101998.50
2022-08-27T21:03:24.881Z,102006.78
2022-08-27T21:05:52.609Z,102011.47
2022-08-27T21:08:21.871Z,102016.22
2022-08-27T21:10:52.853Z,102011.78
2022-08-27T21:13:21.459Z,102007.56
2022-08-27T21:15:50.227Z,102005.84
2022-08-27T21:18:22.404Z,102013.41
2022-08-27T21:20:59.340Z,102012.72
2022-08-27T21:23:28.134Z,102016.88
2022-08-27T21:26:04.463Z,102016.66
2022-08-27T21:28:32.245Z,102025.31
2022-08-27T21:30:59.854Z,102022.91
2022-08-27T21:33:27.480Z,102019.50
2022-08-27T21:35:55.352Z,102020.50
2022-08-27T21:38:22.946Z,102022.50
2022-08-27T21:40:50.459Z,102029.94
2022-08-27T21:43:18.215Z,102032.78
2022-08-27T21:45:46.071Z,102030.25
2022-08-27T21:48:14.116Z,102025.13
2022-08-27T21:50:41.797Z,102033.25
2022-08-27T21:53:10.611Z,102018.16
2022-08-27T21:55:38.247Z,102028.97
2022-08-27T21:58:06.175Z,102026.28
2022-08-27T22:00:40.663Z,102030.66
2022-08-27T22:03:11.073Z,102027.97
2022-08-27T22:05:41.390Z,102027.28
2022-08-27T22:08:11.514Z,102023.00
2022-08-27T22:10:41.731Z,102021.31
2022-08-27T22:13:09.720Z,102032.13
2022-08-27T22:15:38.138Z,102040.38
2022-08-27T22:18:07.083Z,102040.38
2022-08-27T22:20:35.348Z,102042.53
2022-08-27T22:23:05.280Z,102047.22
2022-08-27T22:25:33.495Z,102043.97
2022-08-27T22:28:01.166Z,102050.38
2022-08-27T22:30:28.871Z,102053.25
2022-08-27T22:32:57.092Z,102046.97
2022-08-27T22:35:24.750Z,102049.53
2022-08-27T22:37:55.698Z,102050.69
2022-08-27T22:40:25.032Z,102052.81
2022-08-27T22:42:54.017Z,102049.28
2022-08-27T22:45:21.670Z,102054.53
2022-08-27T22:47:49.315Z,102051.81
2022-08-27T22:50:17.470Z,102051.69
2022-08-27T22:52:45.836Z,102049.00
2022-08-27T22:55:16.385Z,102046.56
2022-08-27T22:57:43.950Z,102053.97
2022-08-27T23:00:16.463Z,102049.69
2022-08-27T23:02:44.052Z,102050.88
2022-08-27T23:05:13.229Z,102047.16
2022-08-27T23:07:41.418Z,102052.69
2022-08-27T23:10:11.494Z,102050.16
2022-08-27T23:12:39.199Z,102053.69
2022-08-27T23:15:09.295Z,102057.41
2022-08-27T23:17:37.217Z,102053.88
2022-08-27T23:20:07.837Z,102045.03
2022-08-27T23:22:36.478Z,102052.44
2022-08-27T23:25:24.004Z,102049.03
2022-08-27T23:27:51.719Z,102044.63
2022-08-27T23:30:19.536Z,102043.94
2022-08-27T23:32:50.212Z,102053.19
2022-08-27T23:35:22.897Z,102046.22
2022-08-27T23:37:51.438Z,102050.91
2022-08-27T23:40:20.986Z,102057.75
2022-08-27T23:42:50.396Z,102052.75
2022-08-27T23:45:22.312Z,102056.75
2022-08-27T23:47:50.038Z,102065.03
2022-08-27T23:50:17.722Z,102068.84
2022-08-27T23:52:45.396Z,102062.00
2022-08-27T23:55:13.084Z,102057.75
2022-08-27T23:57:41.146Z,102061.56
